Time;durP1;ratioP1;P1;durP2;ratioP2;P2;SDS_P1;SDS_P2;PMS_P1;PMS_P2;Temp;Humidity;BMP_temperature;BMP_pressure;BME280_temperature;BME280_humidity;BME280_pressure;Samples;Min_cycle;Max_cycle;Signal;HPM_P1;HPM_P2
2022/06/08 00:00:14;;;;;;;12.32;4.70;;;10.40;99.90;;;;;;4908714;29;20055;-39
2022/06/08 00:02:42;;;;;;;6.75;3.90;;;10.40;99.90;;;;;;4909839;29;20115;-39
2022/06/08 00:05:08;;;;;;;7.47;4.10;;;10.40;99.90;;;;;;4913356;29;20460;-40
2022/06/08 00:07:33;;;;;;;11.07;4.00;;;10.30;99.90;;;;;;4893168;29;20126;-40
2022/06/08 00:09:59;;;;;;;7.57;3.65;;;10.30;99.90;;;;;;4912401;29;20147;-39
2022/06/08 00:12:25;;;;;;;7.07;3.67;;;10.20;99.90;;;;;;4910434;29;20389;-40
2022/06/08 00:14:51;;;;;;;9.48;3.88;;;10.20;99.90;;;;;;4911650;29;20044;-39
2022/06/08 00:17:17;;;;;;;6.05;3.50;;;10.00;99.90;;;;;;4895399;29;20693;-39
2022/06/08 00:19:42;;;;;;;7.20;3.70;;;10.10;99.90;;;;;;4908251;29;20103;-39
2022/06/08 00:22:08;;;;;;;5.20;3.15;;;10.10;99.90;;;;;;4910404;29;20488;-40
2022/06/08 00:24:34;;;;;;;5.68;3.85;;;10.00;99.90;;;;;;4911496;29;20657;-39
2022/06/08 00:27:00;;;;;;;7.75;4.05;;;10.00;99.90;;;;;;4895886;29;20062;-40
2022/06/08 00:29:26;;;;;;;6.25;4.45;;;10.00;99.90;;;;;;4910539;29;20056;-39
2022/06/08 00:31:52;;;;;;;5.75;3.90;;;10.10;99.90;;;;;;4910727;29;20412;-39
2022/06/08 00:34:18;;;;;;;7.07;4.10;;;10.00;99.90;;;;;;4909540;29;20437;-40
2022/06/08 00:36:43;;;;;;;7.35;4.68;;;10.10;99.90;;;;;;4895569;29;20440;-40
2022/06/08 00:39:09;;;;;;;11.82;4.60;;;10.10;99.90;;;;;;4911204;29;20052;-40
2022/06/08 00:41:35;;;;;;;12.23;4.93;;;10.00;99.90;;;;;;4911867;29;20108;-39
2022/06/08 00:44:04;;;;;;;7.93;4.50;;;10.10;99.90;;;;;;4909981;29;20112;-40
2022/06/08 00:46:29;;;;;;;8.68;4.63;;;10.10;99.90;;;;;;4898841;29;20135;-39
2022/06/08 00:49:02;;;;;;;11.03;5.47;;;10.10;99.90;;;;;;4907693;29;20167;-40
2022/06/08 00:51:28;;;;;;;8.53;4.80;;;10.10;99.90;;;;;;4909439;29;20432;-38
2022/06/08 00:53:59;;;;;;;8.73;5.57;;;10.10;99.90;;;;;;4909991;29;20044;-39
2022/06/08 00:56:36;;;;;;;11.73;5.30;;;10.10;99.90;;;;;;4893639;29;20061;-40
2022/06/08 00:59:04;;;;;;;9.45;5.35;;;10.10;99.90;;;;;;4908466;29;20052;-40
2022/06/08 01:01:29;;;;;;;10.43;5.53;;;10.10;99.90;;;;;;4925118;29;20071;-39
2022/06/08 01:04:07;;;;;;;11.73;5.50;;;10.00;99.90;;;;;;4910225;29;20735;-39
2022/06/08 01:06:33;;;;;;;10.07;4.93;;;10.20;99.90;;;;;;4895827;29;20804;-40
2022/06/08 01:08:59;;;;;;;7.70;5.50;;;10.10;99.90;;;;;;4908821;29;20091;-40
2022/06/08 01:11:37;;;;;;;10.25;5.80;;;10.10;99.90;;;;;;4909951;29;20729;-39
2022/06/08 01:14:06;;;;;;;11.35;5.47;;;10.10;99.90;;;;;;4909517;29;20048;-39
2022/06/08 01:16:32;;;;;;;13.03;6.80;;;10.20;99.90;;;;;;4896848;29;20580;-39
2022/06/08 01:19:01;;;;;;;11.90;5.57;;;10.10;99.90;;;;;;4907382;29;20099;-39
2022/06/08 01:21:27;;;;;;;9.82;6.05;;;10.10;99.90;;;;;;4924893;29;20067;-39
2022/06/08 01:24:00;;;;;;;9.98;6.30;;;10.10;99.90;;;;;;4909677;29;20599;-39
2022/06/08 01:26:33;;;;;;;13.10;5.80;;;10.30;99.90;;;;;;4897126;29;20599;-40
2022/06/08 01:29:13;;;;;;;9.80;5.83;;;10.10;99.90;;;;;;4907801;29;20877;-39
2022/06/08 01:31:58;;;;;;;11.50;5.53;;;10.10;99.90;;;;;;4910929;29;20067;-40
2022/06/08 01:34:39;;;;;;;9.10;5.43;;;10.20;99.90;;;;;;4908376;29;20183;-39
2022/06/08 01:37:11;;;;;;;9.55;4.95;;;10.10;99.90;;;;;;4894098;29;20040;-39
2022/06/08 01:39:42;;;;;;;;;;;10.10;99.90;;;;;;4910064;29;20051;-42
2022/06/08 01:42:40;;;;;;;9.50;5.60;;;10.10;99.90;;;;;;4908842;29;19923;-40
2022/06/08 01:45:28;;;;;;;11.13;5.57;;;10.10;99.90;;;;;;4905875;29;20067;-41
2022/06/08 01:48:28;;;;;;;8.20;5.27;;;10.10;99.90;;;;;;4892952;29;20170;-39
2022/06/08 01:51:12;;;;;;;9.57;5.50;;;10.10;99.90;;;;;;4907404;29;20051;-40
2022/06/08 01:53:50;;;;;;;7.57;5.60;;;10.00;99.90;;;;;;4909965;29;20075;-40
2022/06/08 01:56:15;;;;;;;9.53;5.63;;;10.00;99.90;;;;;;4900468;29;20052;-40
2022/06/08 01:58:56;;;;;;;9.23;5.30;;;10.00;99.90;;;;;;4903559;29;20055;-40
2022/06/08 02:01:47;;;;;;;10.87;5.80;;;10.00;99.90;;;;;;4909038;29;20063;-40
2022/06/08 02:04:21;;;;;;;7.40;5.23;;;10.00;99.90;;;;;;4899101;29;20085;-39
2022/06/08 02:06:55;;;;;;;8.53;5.13;;;10.00;99.90;;;;;;4895813;29;20064;-40
2022/06/08 02:09:36;;;;;;;9.17;5.73;;;10.00;99.90;;;;;;4907712;29;20144;-40
2022/06/08 02:12:06;;;;;;;10.55;5.75;;;10.00;99.90;;;;;;4910180;29;20488;-40
2022/06/08 02:14:56;;;;;;;11.77;6.03;;;10.00;99.90;;;;;;4908772;29;20196;-40
2022/06/08 02:17:32;;;;;;;9.20;5.32;;;10.00;99.90;;;;;;4894025;29;20148;-40
2022/06/08 02:20:21;;;;;;;9.80;5.50;;;10.00;99.90;;;;;;5340444;23;20056;-43
2022/06/08 02:22:55;;;;;;;10.43;5.47;;;9.90;99.90;;;;;;4907292;29;20080;-41
2022/06/08 02:25:28;;;;;;;8.00;5.40;;;9.90;99.90;;;;;;4906441;29;20111;-42
2022/06/08 02:28:11;;;;;;;9.80;6.00;;;9.90;99.90;;;;;;4890789;29;20048;-41
2022/06/08 02:30:51;;;;;;;10.30;5.77;;;9.90;99.90;;;;;;4907983;29;20055;-41
2022/06/08 02:36:26;;;;;;;13.33;5.50;;;10.00;99.90;;;;;;4899149;29;20059;-41
2022/06/08 02:39:25;;;;;;;10.30;5.40;;;10.00;99.90;;;;;;4904163;29;20127;-41
2022/06/08 02:41:54;;;;;;;11.00;6.10;;;10.00;99.90;;;;;;4907347;29;20048;-42
2022/06/08 02:44:24;;;;;;;8.50;5.77;;;10.00;99.90;;;;;;4903707;29;20040;-41
2022/06/08 02:47:08;;;;;;;8.43;5.70;;;10.00;99.90;;;;;;4892396;29;20531;-41
2022/06/08 02:49:35;;;;;;;8.67;5.50;;;10.00;99.90;;;;;;4906345;29;20079;-41
2022/06/08 02:52:11;;;;;;;9.53;5.57;;;10.00;99.90;;;;;;4906833;29;20044;-43
2022/06/08 02:54:36;;;;;;;8.47;5.93;;;10.00;99.90;;;;;;4906915;29;20082;-42
2022/06/08 02:57:19;;;;;;;9.77;5.90;;;10.00;99.90;;;;;;4892425;29;20513;-42
2022/06/08 02:59:59;;;;;;;7.30;5.50;;;10.00;99.90;;;;;;4905427;29;20554;-42
2022/06/08 03:02:34;;;;;;;6.43;4.88;;;10.00;99.90;;;;;;4907365;29;20056;-39
2022/06/08 03:05:11;;;;;;;9.90;5.80;;;9.90;99.90;;;;;;4909077;29;20063;-40
2022/06/08 03:08:00;;;;;;;7.63;5.77;;;9.90;99.90;;;;;;4893508;29;20548;-41
2022/06/08 03:10:30;;;;;;;8.13;5.73;;;9.90;99.90;;;;;;4909036;29;20045;-39
2022/06/08 03:13:04;;;;;;;9.63;6.23;;;9.90;99.90;;;;;;4909083;29;20162;-40
2022/06/08 03:15:31;;;;;;;10.33;5.60;;;9.90;99.90;;;;;;4913415;29;20552;-40
2022/06/08 03:17:57;;;;;;;10.70;7.00;;;9.90;99.90;;;;;;4893836;29;20516;-40
2022/06/08 03:20:24;;;;;;;14.13;6.93;;;9.90;99.90;;;;;;4909455;29;20064;-40
2022/06/08 03:22:50;;;;;;;13.63;6.90;;;9.80;99.90;;;;;;4908904;29;20075;-40
2022/06/08 03:25:16;;;;;;;10.33;6.70;;;9.80;99.90;;;;;;4908647;29;20094;-41
2022/06/08 03:27:44;;;;;;;12.57;7.40;;;9.80;99.90;;;;;;4893178;29;20131;-42
2022/06/08 03:30:12;;;;;;;12.03;7.47;;;9.80;99.90;;;;;;4910578;29;20543;-39
2022/06/08 03:32:37;;;;;;;12.40;7.37;;;9.80;99.90;;;;;;4907540;29;20059;-40
2022/06/08 03:35:03;;;;;;;12.83;7.13;;;9.80;99.90;;;;;;4910683;29;20056;-39
2022/06/08 03:37:29;;;;;;;14.67;7.93;;;9.80;99.90;;;;;;4896958;29;20052;-40
2022/06/08 03:39:55;;;;;;;12.10;7.53;;;9.80;99.90;;;;;;4912262;29;20171;-40
2022/06/08 03:42:20;;;;;;;12.83;7.77;;;9.80;99.90;;;;;;4912059;29;20198;-41
2022/06/08 03:44:46;;;;;;;11.33;7.40;;;9.80;99.90;;;;;;4913507;29;20055;-40
2022/06/08 03:47:24;;;;;;;11.67;7.43;;;9.70;99.90;;;;;;4895938;29;20517;-41
2022/06/08 03:49:51;;;;;;;10.27;7.10;;;9.70;99.90;;;;;;4913413;29;20059;-40
2022/06/08 03:52:22;;;;;;;12.40;7.93;;;9.70;99.90;;;;;;4911480;29;20048;-40
2022/06/08 03:54:52;;;;;;;10.57;7.70;;;9.70;99.90;;;;;;4913043;29;20082;-39
2022/06/08 03:57:19;;;;;;;11.80;7.80;;;9.70;99.90;;;;;;4896816;29;20127;-40
2022/06/08 03:59:48;;;;;;;12.13;8.03;;;9.70;99.90;;;;;;4912229;29;20048;-41
2022/06/08 04:02:14;;;;;;;12.27;8.13;;;9.80;99.90;;;;;;4911679;29;20103;-42
2022/06/08 04:04:41;;;;;;;14.63;9.30;;;9.70;99.90;;;;;;4895310;29;20130;-41
2022/06/08 04:07:07;;;;;;;14.37;10.37;;;9.80;99.90;;;;;;4897862;29;20055;-41
2022/06/08 04:09:33;;;;;;;14.47;9.70;;;9.80;99.90;;;;;;4911825;29;20043;-40
2022/06/08 04:11:59;;;;;;;17.70;10.70;;;9.80;99.90;;;;;;4912546;29;20766;-40
2022/06/08 04:14:25;;;;;;;17.17;10.90;;;9.80;99.90;;;;;;4913197;29;20051;-41
2022/06/08 04:16:51;;;;;;;16.73;11.03;;;9.80;99.90;;;;;;4905378;29;20056;-41
2022/06/08 04:19:18;;;;;;;15.43;10.77;;;9.90;99.90;;;;;;4910887;29;20052;-41
2022/06/08 04:21:44;;;;;;;15.13;10.77;;;9.90;99.90;;;;;;4911270;29;20059;-40
2022/06/08 04:24:12;;;;;;;16.63;10.67;;;9.90;99.90;;;;;;4912229;29;20392;-41
2022/06/08 04:26:38;;;;;;;15.80;11.40;;;9.90;99.90;;;;;;4898978;29;20374;-40
2022/06/08 04:29:05;;;;;;;16.30;11.43;;;10.00;99.90;;;;;;4909928;29;20056;-39
2022/06/08 04:31:34;;;;;;;16.30;11.17;;;10.00;99.90;;;;;;4912191;29;20091;-39
2022/06/08 04:34:01;;;;;;;20.27;12.57;;;10.00;99.90;;;;;;4910360;29;20127;-39
2022/06/08 04:36:27;;;;;;;20.27;12.80;;;10.10;99.90;;;;;;4908994;29;20301;-40
2022/06/08 04:38:52;;;;;;;20.57;13.40;;;10.20;99.90;;;;;;4908563;29;20048;-40
2022/06/08 04:41:19;;;;;;;19.20;14.20;;;10.20;99.90;;;;;;4911638;29;20060;-40
2022/06/08 04:43:45;;;;;;;22.60;14.60;;;10.30;99.90;;;;;;4898465;29;20047;-40
2022/06/08 04:46:15;;;;;;;22.20;14.90;;;10.40;99.90;;;;;;4908619;29;20139;-41
2022/06/08 04:48:46;;;;;;;24.77;15.80;;;10.40;99.90;;;;;;4901810;29;20044;-40
2022/06/08 04:51:14;;;;;;;24.70;16.25;;;10.50;99.90;;;;;;4912048;29;20044;-40
2022/06/08 04:53:42;;;;;;;26.53;16.63;;;10.60;99.90;;;;;;4908965;29;20057;-40
2022/06/08 04:56:08;;;;;;;26.03;16.13;;;10.70;99.90;;;;;;4904644;29;20055;-41
2022/06/08 04:58:34;;;;;;;25.60;17.15;;;10.80;99.90;;;;;;4907920;29;20061;-40
2022/06/08 05:01:00;;;;;;;27.13;16.80;;;10.90;99.90;;;;;;4912275;29;20051;-40
2022/06/08 05:03:26;;;;;;;24.42;16.15;;;11.00;99.90;;;;;;4908315;29;20723;-39
2022/06/08 05:05:52;;;;;;;27.65;16.65;;;11.10;99.90;;;;;;4913774;29;20040;-39
2022/06/08 05:08:20;;;;;;;30.25;18.17;;;11.10;99.90;;;;;;4893949;29;20083;-40
2022/06/08 05:10:48;;;;;;;26.15;17.50;;;11.30;99.90;;;;;;4909581;29;20135;-40
2022/06/08 05:13:13;;;;;;;32.78;18.10;;;11.30;99.90;;;;;;4908828;29;20052;-39
2022/06/08 05:15:41;;;;;;;27.02;17.85;;;11.40;99.90;;;;;;4893385;29;20052;-41
2022/06/08 05:18:08;;;;;;;31.83;18.52;;;11.50;99.90;;;;;;4892240;29;20072;-39
2022/06/08 05:20:36;;;;;;;27.58;19.50;;;11.50;99.90;;;;;;4907718;29;21410;-40
2022/06/08 05:23:02;;;;;;;30.98;19.90;;;11.60;99.90;;;;;;4907938;29;20048;-42
2022/06/08 05:25:31;;;;;;;31.17;20.27;;;11.70;99.90;;;;;;4908261;29;20056;-42
2022/06/08 05:27:58;;;;;;;30.35;20.00;;;11.80;99.90;;;;;;4892716;29;20040;-39
2022/06/08 05:30:25;;;;;;;28.10;19.20;;;11.80;99.90;;;;;;4911136;29;20103;-39
2022/06/08 05:32:51;;;;;;;32.20;19.98;;;11.90;99.90;;;;;;4908499;29;20857;-41
2022/06/08 05:35:17;;;;;;;30.92;19.92;;;12.00;99.90;;;;;;4911448;29;20117;-40
2022/06/08 05:37:43;;;;;;;35.78;21.38;;;12.10;99.90;;;;;;4896203;29;20055;-42
2022/06/08 05:40:10;;;;;;;32.30;19.90;;;12.10;99.90;;;;;;4908972;29;20044;-42
2022/06/08 05:42:36;;;;;;;32.85;20.67;;;12.20;99.90;;;;;;4907573;29;20137;-40
2022/06/08 05:45:02;;;;;;;32.88;20.13;;;12.20;99.90;;;;;;4910947;29;20056;-39
2022/06/08 05:47:28;;;;;;;28.80;19.92;;;12.30;99.90;;;;;;4895225;29;20826;-41
2022/06/08 05:49:54;;;;;;;28.05;20.20;;;12.40;99.90;;;;;;4911304;29;20044;-40
2022/06/08 05:52:19;;;;;;;32.80;19.95;;;12.40;99.90;;;;;;4909655;29;20048;-40
2022/06/08 05:54:45;;;;;;;35.40;20.45;;;12.50;99.90;;;;;;4908397;29;20100;-40
2022/06/08 05:57:11;;;;;;;31.27;19.60;;;12.50;99.90;;;;;;4892664;29;20060;-39
2022/06/08 05:59:37;;;;;;;28.98;20.35;;;12.60;99.90;;;;;;4908147;29;20064;-39
2022/06/08 06:02:07;;;;;;;28.80;20.85;;;12.60;99.90;;;;;;4909099;29;20071;-43
2022/06/08 06:04:33;;;;;;;32.15;21.58;;;12.70;99.90;;;;;;4915765;29;20112;-40
2022/06/08 06:06:59;;;;;;;30.80;20.20;;;12.80;99.90;;;;;;4897793;29;20064;-40
2022/06/08 06:09:26;;;;;;;28.95;19.48;;;12.90;99.90;;;;;;4908282;29;20047;-40
2022/06/08 06:11:52;;;;;;;33.05;20.70;;;13.00;99.90;;;;;;4909507;29;20051;-40
2022/06/08 06:14:18;;;;;;;32.15;20.70;;;13.10;99.90;;;;;;4910640;29;20567;-40
2022/06/08 06:16:44;;;;;;;29.30;19.70;;;13.20;99.90;;;;;;4904303;29;20122;-41
2022/06/08 06:19:10;;;;;;;26.10;19.48;;;13.20;99.90;;;;;;4907702;29;20077;-41
2022/06/08 06:21:35;;;;;;;28.70;19.95;;;13.30;99.90;;;;;;4909619;29;20070;-41
2022/06/08 06:24:02;;;;;;;28.52;19.25;;;13.40;99.90;;;;;;4909030;29;20056;-39
2022/06/08 06:26:29;;;;;;;31.08;20.60;;;13.40;99.90;;;;;;4896601;29;20139;-41
2022/06/08 06:28:56;;;;;;;28.35;19.95;;;13.50;99.90;;;;;;4907777;29;20056;-41
2022/06/08 06:31:39;;;;;;;27.60;18.58;;;13.70;99.90;;;;;;4908207;29;20511;-40
2022/06/08 06:34:05;;;;;;;27.80;18.98;;;13.80;99.90;;;;;;4907415;29;20052;-40
2022/06/08 06:36:31;;;;;;;28.73;19.35;;;13.90;99.90;;;;;;4894547;29;20044;-39
2022/06/08 06:38:56;;;;;;;26.60;18.80;;;14.00;99.90;;;;;;4907289;29;20111;-40
2022/06/08 06:41:22;;;;;;;25.25;18.75;;;14.20;99.90;;;;;;4905487;29;20056;-41
2022/06/08 06:43:48;;;;;;;27.27;17.98;;;14.30;99.90;;;;;;4907846;29;20412;-41
2022/06/08 06:46:15;;;;;;;26.23;18.27;;;14.30;99.90;;;;;;4899006;29;20074;-42
2022/06/08 06:48:41;;;;;;;26.80;16.77;;;14.50;99.90;;;;;;4903883;29;20060;-41
2022/06/08 06:51:08;;;;;;;25.98;16.60;;;14.60;99.90;;;;;;4908189;29;20044;-41
2022/06/08 06:53:34;;;;;;;26.15;16.40;;;14.70;99.90;;;;;;4907439;29;20068;-41
2022/06/08 06:56:00;;;;;;;21.33;15.70;;;14.80;99.90;;;;;;4909660;29;20039;-42
2022/06/08 06:58:25;;;;;;;21.38;14.55;;;14.90;99.90;;;;;;4891933;29;20131;-42
2022/06/08 07:00:51;;;;;;;23.85;15.52;;;15.00;99.90;;;;;;4909521;29;20696;-42
2022/06/08 07:03:17;;;;;;;21.02;14.45;;;15.10;99.90;;;;;;4908059;29;20412;-42
2022/06/08 07:05:43;;;;;;;20.30;14.45;;;15.30;99.90;;;;;;4909423;29;20044;-42
2022/06/08 07:08:09;;;;;;;17.80;13.13;;;15.30;99.90;;;;;;4909403;29;20619;-42
2022/06/08 07:10:36;;;;;;;15.77;12.32;;;15.50;99.90;;;;;;4912152;29;20044;-41
2022/06/08 07:13:03;;;;;;;17.55;11.65;;;15.60;99.90;;;;;;4914904;29;20531;-42
2022/06/08 07:15:29;;;;;;;17.85;11.68;;;15.70;99.90;;;;;;4914299;29;20052;-42
2022/06/08 07:17:55;;;;;;;15.48;11.23;;;15.90;99.90;;;;;;4896852;29;20087;-42
2022/06/08 07:20:21;;;;;;;18.40;11.70;;;15.90;99.90;;;;;;4911482;29;20088;-42
2022/06/08 07:22:50;;;;;;;15.48;11.07;;;16.00;99.90;;;;;;4911830;29;20074;-42
2022/06/08 07:25:17;;;;;;;16.98;11.80;;;16.10;99.90;;;;;;4913140;29;20523;-42
2022/06/08 07:27:44;;;;;;;16.50;11.43;;;16.20;99.90;;;;;;4896643;29;20041;-42
2022/06/08 07:30:11;;;;;;;15.07;10.50;;;16.20;99.90;;;;;;4913336;29;20044;-41
2022/06/08 07:32:37;;;;;;;15.80;11.18;;;16.30;99.90;;;;;;4912860;29;20055;-42
2022/06/08 07:35:09;;;;;;;19.38;13.30;;;16.30;99.90;;;;;;4913415;29;20091;-40
2022/06/08 07:37:35;;;;;;;21.13;13.93;;;16.40;99.90;;;;;;4897755;29;20040;-41
2022/06/08 07:40:01;;;;;;;23.98;15.40;;;16.40;99.90;;;;;;4912391;29;20839;-40
2022/06/08 07:42:26;;;;;;;24.67;15.27;;;16.50;99.90;;;;;;4912821;29;20135;-41
2022/06/08 07:44:52;;;;;;;26.20;16.15;;;16.50;99.90;;;;;;4912176;29;20682;-40
2022/06/08 07:47:18;;;;;;;20.23;12.77;;;16.50;99.90;;;;;;4896154;29;20044;-41
2022/06/08 07:49:49;;;;;;;33.83;19.42;;;16.60;99.90;;;;;;4911346;29;20098;-40
2022/06/08 07:52:18;;;;;;;20.48;14.13;;;16.60;99.90;;;;;;4911001;29;20094;-40
2022/06/08 07:54:45;;;;;;;28.88;16.30;;;16.60;99.90;;;;;;4913062;29;20048;-40
2022/06/08 07:57:25;;;;;;;27.40;16.48;;;16.60;99.90;;;;;;4896338;29;20474;-40
2022/06/08 07:59:51;;;;;;;22.97;14.17;;;16.70;99.90;;;;;;4910466;29;20459;-40
2022/06/08 08:02:17;;;;;;;27.00;15.95;;;16.60;99.90;;;;;;4911177;29;20311;-41
2022/06/08 08:04:44;;;;;;;29.90;18.80;;;16.60;99.90;;;;;;4913084;29;20442;-41
2022/06/08 08:07:11;;;;;;;19.95;13.65;;;16.70;99.90;;;;;;4895972;29;20052;-41
2022/06/08 08:09:37;;;;;;;23.38;13.13;;;16.70;99.90;;;;;;4912271;29;20475;-41
2022/06/08 08:12:04;;;;;;;20.00;11.45;;;16.80;99.90;;;;;;4913574;29;20095;-42
2022/06/08 08:14:33;;;;;;;21.35;13.23;;;16.90;99.90;;;;;;4910772;29;20051;-41
2022/06/08 08:17:00;;;;;;;18.77;12.45;;;16.90;99.90;;;;;;4896175;29;20084;-42
2022/06/08 08:19:26;;;;;;;19.35;11.82;;;16.90;99.90;;;;;;4910576;29;20496;-42
2022/06/08 08:21:52;;;;;;;13.73;8.63;;;17.00;99.90;;;;;;4909448;29;20112;-41
2022/06/08 08:24:18;;;;;;;11.65;7.40;;;17.10;99.90;;;;;;4907200;29;20044;-41
2022/06/08 08:26:46;;;;;;;13.57;9.07;;;17.20;99.90;;;;;;4896359;29;20044;-42
2022/06/08 08:29:13;;;;;;;11.75;10.07;;;17.30;99.90;;;;;;4909547;29;20389;-42
2022/06/08 08:31:39;;;;;;;7.55;5.95;;;17.30;99.90;;;;;;4913997;29;20051;-41
2022/06/08 08:34:05;;;;;;;11.10;7.07;;;17.40;99.90;;;;;;4912109;29;20428;-41
2022/06/08 08:36:31;;;;;;;7.38;5.25;;;17.50;99.90;;;;;;4897886;29;20060;-42
2022/06/08 08:38:58;;;;;;;8.88;4.13;;;17.60;99.90;;;;;;4908652;29;20389;-41
2022/06/08 08:44:35;;;;;;;5.97;3.85;;;17.70;99.90;;;;;;4908655;29;20055;-41
2022/06/08 08:47:35;;;;;;;5.25;3.70;;;17.80;99.90;;;;;;4896343;29;20063;-40
2022/06/08 08:50:30;;;;;;;5.43;3.13;;;17.80;99.90;;;;;;4909282;29;20055;-42
2022/06/08 08:53:17;;;;;;;6.63;3.33;;;17.90;99.90;;;;;;4907583;29;20044;-42
2022/06/08 08:55:50;;;;;;;7.15;3.50;;;17.90;99.90;;;;;;4909671;29;20056;-41
2022/06/08 08:58:24;;;;;;;5.43;2.47;;;17.90;99.90;;;;;;4895132;29;20060;-41
2022/06/08 09:01:11;;;;;;;6.10;2.65;;;18.00;99.90;;;;;;4910679;29;20138;-41
2022/06/08 09:03:42;;;;;;;3.95;2.60;;;18.10;99.90;;;;;;4908186;29;20103;-42
2022/06/08 09:06:19;;;;;;;3.63;2.95;;;18.20;99.90;;;;;;4908663;29;20052;-42
2022/06/08 09:08:48;;;;;;;4.38;2.30;;;18.30;99.90;;;;;;4904568;29;20078;-42
2022/06/08 09:11:22;;;;;;;6.78;2.80;;;18.30;99.90;;;;;;4910504;29;20051;-41
2022/06/08 09:13:50;;;;;;;4.20;2.00;;;18.30;99.90;;;;;;4908688;29;20051;-41
2022/06/08 09:16:35;;;;;;;2.13;1.67;;;18.40;99.90;;;;;;4905143;29;20531;-42
2022/06/08 09:19:19;;;;;;;2.67;1.20;;;18.40;99.90;;;;;;4905650;29;20052;-41
2022/06/08 09:21:45;;;;;;;1.83;1.10;;;18.40;99.90;;;;;;4908168;29;20436;-42
2022/06/08 09:24:38;;;;;;;3.33;1.55;;;18.40;99.90;;;;;;4909682;29;20056;-42
2022/06/08 09:27:13;;;;;;;4.03;1.40;;;18.40;99.90;;;;;;4894586;29;20056;-44
2022/06/08 09:29:56;;;;;;;2.25;1.63;;;18.50;99.90;;;;;;4911775;29;20247;-41
2022/06/08 09:32:54;;;;;;;4.97;1.98;;;18.50;99.90;;;;;;4908456;29;20048;-42
2022/06/08 09:35:40;;;;;;;2.35;1.45;;;18.50;99.90;;;;;;4911079;29;20052;-41
2022/06/08 09:38:13;;;;;;;1.83;1.35;;;18.50;99.90;;;;;;4900015;29;20040;-42
2022/06/08 09:40:57;;;;;;;3.63;1.63;;;18.60;99.90;;;;;;4909623;29;20496;-41
2022/06/08 09:43:33;;;;;;;4.80;1.90;;;18.60;99.90;;;;;;4907760;29;20044;-43
2022/06/08 09:46:24;;;;;;;3.00;1.38;;;18.70;99.90;;;;;;4908230;29;20062;-42
2022/06/08 09:51:50;;;;;;;5.20;1.58;;;18.90;99.90;;;;;;4911086;29;20051;-42
2022/06/08 09:54:23;;;;;;;5.85;1.52;;;18.90;99.90;;;;;;4908015;29;20095;-42
2022/06/08 09:57:32;;;;;;;3.58;1.60;;;18.90;99.90;;;;;;5111366;27;20130;-33
2022/06/08 10:00:20;;;;;;;2.60;1.75;;;18.90;99.90;;;;;;5084576;28;20116;-32
2022/06/08 10:03:07;;;;;;;3.20;1.70;;;18.90;99.90;;;;;;5077416;28;20064;-32
2022/06/08 10:05:38;;;;;;;3.15;1.25;;;19.00;99.90;;;;;;5061211;28;20127;-32
2022/06/08 10:08:42;;;;;;;2.55;1.10;;;19.00;99.90;;;;;;5046285;28;20040;-33
2022/06/08 10:11:40;;;;;;;4.22;0.90;;;19.00;99.90;;;;;;5064769;28;20080;-40
2022/06/08 10:14:38;;;;;;;3.58;1.05;;;19.00;99.90;;;;;;5061363;28;20053;-40
2022/06/08 10:17:26;;;;;;;1.90;1.02;;;19.00;99.90;;;;;;5044518;28;20093;-42
2022/06/08 10:20:03;;;;;;;2.97;1.23;;;19.00;99.90;;;;;;5060584;28;20124;-41
2022/06/08 10:22:35;;;;;;;3.03;1.60;;;19.10;99.90;;;;;;5070618;28;20079;-40
2022/06/08 10:25:07;;;;;;;3.30;1.20;;;19.20;99.90;;;;;;5065785;28;20053;-41
2022/06/08 10:27:50;;;;;;;3.63;1.20;;;19.30;99.90;;;;;;5049632;28;20059;-41
2022/06/08 10:30:20;;;;;;;2.78;1.23;;;19.40;99.90;;;;;;5087429;28;20044;-41
2022/06/08 10:32:53;;;;;;;3.70;1.40;;;19.40;99.90;;;;;;5076771;28;20411;-41
2022/06/08 10:35:28;;;;;;;2.88;1.60;;;19.60;99.90;;;;;;5062843;28;20395;-41
2022/06/08 10:37:55;;;;;;;3.08;1.50;;;19.70;99.90;;;;;;5043922;28;20044;-42
2022/06/08 10:40:26;;;;;;;4.25;1.40;;;19.80;99.90;;;;;;5056726;28;20048;-42
2022/06/08 10:42:52;;;;;;;;;;;19.90;99.90;;;;;;5056027;28;20045;-42
2022/06/08 10:45:23;;;;;;;4.38;1.75;;;20.00;99.90;;;;;;5054511;28;19970;-42
2022/06/08 10:48:00;;;;;;;2.78;1.33;;;20.00;99.90;;;;;;5048718;28;20515;-42
2022/06/08 10:50:38;;;;;;;2.03;1.65;;;20.10;99.90;;;;;;5086339;28;20554;-42
2022/06/08 10:56:32;;;;;;;4.75;1.63;;;20.20;99.90;;;;;;5080044;28;20121;-42
2022/06/08 10:59:06;;;;;;;3.22;1.70;;;20.20;99.90;;;;;;5083347;28;20123;-42
2022/06/08 11:01:54;;;;;;;4.55;1.65;;;20.10;99.90;;;;;;5085854;28;20052;-43
2022/06/08 11:04:32;;;;;;;4.38;1.55;;;20.10;99.90;;;;;;5084049;28;20059;-43
2022/06/08 11:07:00;;;;;;;2.00;1.30;;;20.10;99.90;;;;;;5042016;28;20052;-43
2022/06/08 11:09:32;;;;;;;5.45;1.55;;;20.10;99.90;;;;;;5067349;28;20131;-43
2022/06/08 11:12:11;;;;;;;4.25;1.60;;;20.00;99.90;;;;;;5071278;28;20277;-43
2022/06/08 11:14:43;;;;;;;3.90;1.52;;;20.00;99.90;;;;;;5070818;28;20040;-42
2022/06/08 11:17:31;;;;;;;3.25;1.60;;;20.00;99.90;;;;;;5053547;28;20067;-43
2022/06/08 11:20:28;;;;;;;2.42;1.70;;;20.00;99.90;;;;;;5066499;28;20159;-43
2022/06/08 11:23:01;;;;;;;4.13;1.63;;;19.90;99.90;;;;;;5059595;28;20132;-43
2022/06/08 11:25:32;;;;;;;6.35;2.42;;;19.70;99.90;;;;;;5067851;28;20037;-41
2022/06/08 11:28:27;;;;;;;6.90;2.63;;;19.40;99.90;;;;;;5042904;28;20147;-43
2022/06/08 11:30:55;;;;;;;5.93;2.80;;;19.00;99.90;;;;;;5040958;28;20495;-42
2022/06/08 11:33:22;;;;;;;4.05;2.50;;;18.80;99.90;;;;;;5042279;28;20552;-41
2022/06/08 11:36:02;;;;;;;4.43;2.40;;;18.70;99.90;;;;;;5047745;28;20041;-41
2022/06/08 11:38:54;;;;;;;3.40;2.15;;;18.60;99.90;;;;;;5014614;28;20036;-41
2022/06/08 11:41:20;;;;;;;3.95;2.13;;;18.60;99.90;;;;;;5047272;28;20052;-41
2022/06/08 11:43:47;;;;;;;4.68;2.70;;;18.60;99.90;;;;;;5049967;28;20057;-41
2022/06/08 11:46:41;;;;;;;5.60;2.47;;;18.60;99.90;;;;;;5039573;28;20372;-41
2022/06/08 11:49:30;;;;;;;5.35;3.53;;;18.70;99.90;;;;;;5039337;28;20054;-41
2022/06/08 11:51:56;;;;;;;4.55;3.60;;;18.70;99.90;;;;;;5042556;28;20147;-41
2022/06/08 11:54:25;;;;;;;5.80;3.35;;;18.70;99.90;;;;;;5045224;28;20144;-41
2022/06/08 11:57:02;;;;;;;9.18;4.10;;;18.60;99.90;;;;;;5028836;28;20057;-41
2022/06/08 11:59:33;;;;;;;6.07;3.90;;;18.50;99.90;;;;;;5047075;28;20083;-40
2022/06/08 12:02:13;;;;;;;5.95;4.35;;;18.50;99.90;;;;;;5047775;28;20147;-40
2022/06/08 12:04:43;;;;;;;6.85;4.60;;;18.40;99.90;;;;;;5063609;28;20488;-40
2022/06/08 12:07:29;;;;;;;5.68;4.32;;;18.40;99.90;;;;;;5054458;28;20472;-41
2022/06/08 12:09:55;;;;;;;9.02;4.80;;;18.30;99.90;;;;;;5067879;28;20051;-41
2022/06/08 12:12:26;;;;;;;7.05;5.30;;;18.30;99.90;;;;;;5064386;28;20052;-41
2022/06/08 12:14:52;;;;;;;7.60;5.38;;;18.30;99.90;;;;;;5048959;28;20055;-41
2022/06/08 12:17:18;;;;;;;7.63;5.32;;;18.40;99.90;;;;;;5034111;28;20045;-42
2022/06/08 12:19:52;;;;;;;7.50;5.75;;;18.50;99.90;;;;;;5047726;28;20105;-41
2022/06/08 12:22:35;;;;;;;11.93;8.68;;;18.50;99.90;;;;;;5066445;28;20102;-41
2022/06/08 12:25:10;;;;;;;10.07;7.55;;;18.60;99.90;;;;;;5054166;28;20152;-41
2022/06/08 12:28:00;;;;;;;13.13;9.07;;;18.60;99.90;;;;;;5035291;28;20075;-42
2022/06/08 12:30:44;;;;;;;9.55;7.20;;;18.80;99.90;;;;;;5058943;28;20053;-42
2022/06/08 12:33:16;;;;;;;10.60;6.43;;;18.90;99.90;;;;;;5065593;28;20508;-41
2022/06/08 12:36:00;;;;;;;7.43;5.28;;;19.00;99.90;;;;;;5066899;28;20056;-42
2022/06/08 12:38:34;;;;;;;8.15;5.93;;;19.20;99.90;;;;;;5053945;28;20413;-42
2022/06/08 12:41:10;;;;;;;12.10;7.25;;;19.30;99.90;;;;;;5066812;28;20052;-42
2022/06/08 12:43:39;;;;;;;10.63;6.78;;;19.40;99.90;;;;;;5067269;28;20040;-42
2022/06/08 12:46:17;;;;;;;11.27;7.63;;;19.50;99.90;;;;;;5066341;28;20045;-42
2022/06/08 12:48:50;;;;;;;11.52;7.65;;;19.50;99.90;;;;;;5046346;28;20048;-41
2022/06/08 12:51:25;;;;;;;13.63;9.77;;;19.50;99.90;;;;;;5044322;28;20575;-42
2022/06/08 12:53:51;;;;;;;9.15;6.72;;;19.50;99.90;;;;;;5044752;28;20132;-42
2022/06/08 12:56:18;;;;;;;10.00;6.40;;;19.50;99.90;;;;;;5041667;28;20479;-42
2022/06/08 12:58:48;;;;;;;6.00;4.45;;;19.50;99.90;;;;;;5037745;28;20033;-42
2022/06/08 13:01:14;;;;;;;9.68;4.55;;;19.40;99.90;;;;;;5044132;28;20280;-42
2022/06/08 13:03:41;;;;;;;7.05;4.78;;;19.40;99.90;;;;;;5046442;28;20084;-42
2022/06/08 13:06:07;;;;;;;7.50;4.50;;;19.30;99.90;;;;;;5050783;28;20060;-43
2022/06/08 13:08:33;;;;;;;9.90;4.88;;;19.30;99.90;;;;;;5003556;28;20051;-42
2022/06/08 13:11:04;;;;;;;6.90;4.22;;;19.20;99.90;;;;;;5065789;28;20141;-42
2022/06/08 13:13:33;;;;;;;10.68;5.00;;;19.20;99.90;;;;;;5064812;28;20542;-41
2022/06/08 13:16:03;;;;;;;7.78;5.00;;;19.10;99.90;;;;;;5048908;28;20056;-42